Pagrindinis puslapis
METAR-TAF:

METAR-TAF

Oro uostai :

Brunėjus, Brunėjus

platuma: 04-56N, ilguma: 114-56E, Aukštis: 22 m

Dabartinis oras

Ataskaita buvo paskelbta 21 minutes, ne 11:30 UTC
Vėjas 8 kt iš Šiaurės/Šiaurės Rytų
Temperatūra 28°C
Drėgmė 84%
Slėgis 1009 hPa
Matomumas: 9000 m
Mažai debesys ne aukštis 1500 ft
Su prošvaistėmis ne aukštis 30000 ft

METAR: WBSB 251130Z 03008KT 9000 FEW015 BKN300 28/25 Q1009 NOSIG

Laikas: 19:51 (11:51 UTC)

Prognozė

Ataskaita buvo paskelbta 51 minutes, ne 11:00 UTC
Prognozė galioja nuo 25 metu 12 UTC su 26 metu 18 UTC
Vėjas 8 kt iš Šiaurės/Šiaurės Rytų
Matomumas: 9000 m
Mažai debesys ne aukštis 1500 ft
Tapsmas
nuo 25 metu 18 UTC su 25 metu 20 UTC
Vėjas 3 kt iš Vakarų/Pietvakarių
Mažai debesys ne aukštis 1400 ft

TAF: WBSB 251100Z 2512/2618 02008KT 9000 FEW015 BECMG 2518/2520 24003KT FEW014

Orai ataskaitas ir orų prognozės (METAR, TAF).

turimą stotys yra geltonos ir raudonos taškus žemėlapyje.

Perkelti pele per norėdami pamatyti stoties vardą.

Tada spustelėkite, norėdami matyti oro stebėjimo ir prognozės.

Norėdami pakeisti žemėlapį: spustelėkite ant žalios mygtukų su juodo kryžiaus žemyn,; žalią mygtuką su brūkšneliu, jei norite nutolinti; arba žalių rodyklių gretimoms žemėlapius.


METAR-TAF: